Time;durP1;ratioP1;P1;durP2;ratioP2;P2;SDS_P1;SDS_P2;PMS_P1;PMS_P2;Temp;Humidity;BMP_temperature;BMP_pressure;BME280_temperature;BME280_humidity;BME280_pressure;Samples;Min_cycle;Max_cycle;Signal;HPM_P1;HPM_P2
2024/04/03 00:02:21;;;;;;;;;;;;;;;14.51;47.36;99799.44;4950310;27;98288;-71
2024/04/03 00:04:49;;;;;;;;;;;;;;;14.51;47.66;99798.63;4935768;27;98476;-75
2024/04/03 00:07:16;;;;;;;;;;;;;;;14.50;47.62;99792.38;4952651;27;99191;-75
2024/04/03 00:09:43;;;;;;;;;;;;;;;14.50;47.65;99795.09;4938348;28;98100;-71
2024/04/03 00:12:09;;;;;;;;;;;;;;;14.48;47.51;99784.53;4945862;27;98338;-71
2024/04/03 00:14:35;;;;;;;;;;;;;;;14.47;47.35;99782.94;4953804;27;98433;-71
2024/04/03 00:17:02;;;;;;;;;;;;;;;14.47;47.63;99782.94;4938322;27;98762;-75
2024/04/03 00:19:32;;;;;;;;;;;;;;;14.46;47.33;99789.47;4939137;28;98155;-75
2024/04/03 00:22:02;;;;;;;;;;;;;;;14.47;47.35;99784.84;4912973;28;98261;-75
2024/04/03 00:24:32;;;;;;;;;;;;;;;14.45;47.67;99779.72;4915812;28;98190;-74
2024/04/03 00:26:59;;;;;;;;;;;;;;;14.46;47.48;99783.22;4899504;28;98479;-75
2024/04/03 00:29:26;;;;;;;;;;;;;;;14.44;47.26;99786.25;4899639;28;99143;-70
2024/04/03 00:31:53;;;;;;;;;;;;;;;14.44;47.42;99780.06;4919003;28;98853;-74
2024/04/03 00:34:19;;;;;;;;;;;;;;;14.42;47.23;99777.66;4917625;28;98062;-75
2024/04/03 00:36:45;;;;;;;;;;;;;;;14.43;47.72;99775.75;4903014;28;98225;-71
2024/04/03 00:39:12;;;;;;;;;;;;;;;14.41;47.38;99778.75;4930187;28;99962;-71
2024/04/03 00:41:38;;;;;;;;;;;;;;;14.41;47.66;99786.88;4934406;28;98060;-74
2024/04/03 00:44:05;;;;;;;;;;;;;;;14.39;47.26;99783.69;4899946;28;98271;-70
2024/04/03 00:46:32;;;;;;;;;;;;;;;14.40;47.47;99781.78;4914923;28;98966;-70
2024/04/03 00:48:58;;;;;;;;;;;;;;;14.38;47.36;99776.69;4917637;28;98027;-71
2024/04/03 00:51:25;;;;;;;;;;;;;;;14.37;47.73;99775.06;4919210;28;98155;-71
2024/04/03 00:53:51;;;;;;;;;;;;;;;14.38;47.54;99778.56;4914154;28;98236;-74
2024/04/03 00:56:17;;;;;;;;;;;;;;;14.37;47.72;99774.25;4926545;28;97808;-71
2024/04/03 00:58:44;;;;;;;;;;;;;;;14.35;47.31;99769.16;4918756;28;98186;-71
2024/04/03 01:01:10;;;;;;;;;;;;;;;14.35;47.71;99768.34;4916468;28;99593;-72
2024/04/03 01:03:37;;;;;;;;;;;;;;;14.34;47.72;99769.44;4918020;28;98514;-71
2024/04/03 01:06:06;;;;;;;;;;;;;;;14.32;47.47;99758.13;4919522;28;98033;-74
2024/04/03 01:08:32;;;;;;;;;;;;;;;14.33;47.56;99765.13;4919174;28;99562;-70
2024/04/03 01:11:00;;;;;;;;;;;;;;;14.30;47.64;99753.00;4914839;28;98039;-74
2024/04/03 01:13:28;;;;;;;;;;;;;;;14.30;47.44;99755.69;4916577;28;97928;-74
2024/04/03 01:16:00;;;;;;;;;;;;;;;14.28;47.71;99752.50;4922008;28;99636;-71
2024/04/03 01:18:29;;;;;;;;;;;;;;;14.28;47.64;99754.44;4923684;27;98520;-71
2024/04/03 01:20:56;;;;;;;;;;;;;;;14.25;47.39;99743.09;4940437;27;98646;-71
2024/04/03 01:23:24;;;;;;;;;;;;;;;14.25;47.38;99745.00;4938162;27;98377;-74
2024/04/03 01:25:52;;;;;;;;;;;;;;;14.24;47.29;99749.63;4937623;28;98114;-71
2024/04/03 01:28:20;;;;;;;;;;;;;;;14.23;47.47;99739.91;4940168;27;98242;-74
2024/04/03 01:30:47;;;;;;;;;;;;;;;14.24;47.71;99740.69;4918964;28;98584;-74
2024/04/03 01:33:14;;;;;;;;;;;;;;;14.23;47.32;99744.53;4936546;27;97980;-71
2024/04/03 01:35:43;;;;;;;;;;;;;;;14.21;47.69;99739.38;4937175;27;98084;-74
2024/04/03 01:38:13;;;;;;;;;;;;;;;14.20;47.61;99734.28;4933590;27;100467;-74
2024/04/03 01:40:42;;;;;;;;;;;;;;;14.18;47.63;99729.16;4936330;27;98284;-75
2024/04/03 01:43:12;;;;;;;;;;;;;;;14.17;47.72;99732.97;4939209;27;99847;-74
2024/04/03 01:45:41;;;;;;;;;;;;;;;14.15;47.59;99735.22;4955609;28;97920;-74
2024/04/03 01:48:10;;;;;;;;;;;;;;;14.15;47.38;99731.72;4920853;27;99037;-75
2024/04/03 01:50:40;;;;;;;;;;;;;;;14.12;47.63;99735.81;4954667;27;98345;-74
2024/04/03 01:53:08;;;;;;;;;;;;;;;14.10;47.75;99734.53;4942475;27;98432;-74
2024/04/03 01:55:38;;;;;;;;;;;;;;;14.09;47.49;99733.72;4945724;27;99084;-74
2024/04/03 01:58:06;;;;;;;;;;;;;;;14.07;47.60;99729.72;4957631;27;99241;-74
2024/04/03 02:00:32;;;;;;;;;;;;;;;14.05;47.36;99726.53;4923262;27;98259;-74
2024/04/03 02:03:00;;;;;;;;;;;;;;;14.03;47.40;99726.84;4937690;28;97992;-74
2024/04/03 02:05:27;;;;;;;;;;;;;;;14.02;47.50;99733.34;4922726;27;98284;-71
2024/04/03 02:07:56;;;;;;;;;;;;;;;13.99;47.79;99723.94;4959488;28;98269;-75
2024/04/03 02:10:22;;;;;;;;;;;;;;;13.98;47.82;99716.09;4937663;27;98208;-71
2024/04/03 02:12:50;;;;;;;;;;;;;;;13.96;47.83;99719.13;4925786;28;98397;-74
2024/04/03 02:15:21;;;;;;;;;;;;;;;13.94;47.43;99717.84;4940690;27;98705;-75
2024/04/03 02:17:48;;;;;;;;;;;;;;;13.93;47.48;99721.66;4945490;28;98301;-75
2024/04/03 02:20:15;;;;;;;;;;;;;;;13.91;47.71;99713.84;4939111;27;99427;-70
2024/04/03 02:22:41;;;;;;;;;;;;;;;13.90;47.72;99714.13;4941443;27;98149;-71
2024/04/03 02:25:08;;;;;;;;;;;;;;;13.88;47.62;99719.06;4935916;28;98483;-71
2024/04/03 02:27:39;;;;;;;;;;;;;;;13.87;47.73;99714.75;4925577;27;100439;-75
2024/04/03 02:30:07;;;;;;;;;;;;;;;13.86;47.79;99713.16;4936590;27;98288;-75
2024/04/03 02:32:34;;;;;;;;;;;;;;;13.85;47.79;99715.06;4935890;27;98189;-71
2024/04/03 02:35:00;;;;;;;;;;;;;;;13.84;47.87;99710.75;4939093;28;98677;-70
2024/04/03 02:37:28;;;;;;;;;;;;;;;13.83;47.82;99706.44;4952308;27;98243;-74
2024/04/03 02:39:56;;;;;;;;;;;;;;;13.81;47.83;99705.94;4950986;27;98176;-74
2024/04/03 02:42:24;;;;;;;;;;;;;;;13.81;47.47;99703.25;4941591;27;98456;-70
2024/04/03 02:44:53;;;;;;;;;;;;;;;13.80;47.63;99698.16;4942731;27;98211;-75
2024/04/03 02:47:20;;;;;;;;;;;;;;;13.80;47.71;99714.41;4940696;27;98164;-75
2024/04/03 02:49:47;;;;;;;;;;;;;;;13.78;47.51;99701.13;4955057;27;98472;-70
2024/04/03 02:52:18;;;;;;;;;;;;;;;13.77;47.46;99702.25;4925316;28;98454;-74
2024/04/03 02:54:45;;;;;;;;;;;;;;;13.75;47.79;99689.03;4936654;27;98940;-75
2024/04/03 02:57:14;;;;;;;;;;;;;;;13.73;47.48;99696.66;4935113;28;98253;-75
2024/04/03 02:59:42;;;;;;;;;;;;;;;13.71;47.69;99693.44;4925052;27;99558;-70
2024/04/03 03:02:08;;;;;;;;;;;;;;;13.71;47.81;99703.47;4936487;28;98750;-75
2024/04/03 03:04:42;;;;;;;;;;;;;;;13.71;47.89;99695.34;4955750;27;98123;-71
2024/04/03 03:07:13;;;;;;;;;;;;;;;13.69;47.90;99703.00;4952350;28;98896;-74
2024/04/03 03:09:39;;;;;;;;;;;;;;;13.67;47.50;99700.56;4967267;27;98265;-70
2024/04/03 03:12:06;;;;;;;;;;;;;;;13.66;47.54;99700.88;4936718;28;98784;-75
2024/04/03 03:14:33;;;;;;;;;;;;;;;13.64;47.65;99706.63;4926541;27;98220;-75
2024/04/03 03:17:02;;;;;;;;;;;;;;;13.63;47.53;99709.63;4937732;27;98624;-70
2024/04/03 03:19:28;;;;;;;;;;;;;;;13.63;47.69;99713.13;4941882;27;97965;-71
2024/04/03 03:21:56;;;;;;;;;;;;;;;13.63;47.90;99720.44;4925208;28;99953;-75
2024/04/03 03:24:26;;;;;;;;;;;;;;;13.61;47.65;99709.94;4927449;27;98878;-76
2024/04/03 03:26:53;;;;;;;;;;;;;;;13.61;47.79;99712.63;4938800;27;98296;-75
2024/04/03 03:29:21;;;;;;;;;;;;;;;13.61;47.46;99709.13;4938076;27;99329;-75
2024/04/03 03:31:48;;;;;;;;;;;;;;;13.61;47.60;99714.56;4921524;27;98088;-70
2024/04/03 03:34:14;;;;;;;;;;;;;;;13.61;47.46;99718.06;4940116;27;98244;-70
2024/04/03 03:36:43;;;;;;;;;;;;;;;13.60;47.84;99716.47;4922747;27;98179;-75
2024/04/03 03:39:09;;;;;;;;;;;;;;;13.60;47.53;99715.66;4954156;28;98564;-70
2024/04/03 03:41:36;;;;;;;;;;;;;;;13.59;47.69;99720.25;4936502;27;97997;-75
2024/04/03 03:44:03;;;;;;;;;;;;;;;13.59;47.60;99714.84;4949403;28;98291;-75
2024/04/03 03:46:31;;;;;;;;;;;;;;;13.59;47.53;99722.97;4923867;28;99598;-75
2024/04/03 03:54:29;;;;;;;;;;;;;;;13.58;47.78;99728.69;4943637;27;98159;-75
2024/04/03 03:56:57;;;;;;;;;;;;;;;13.57;47.83;99730.59;4935234;28;97966;-75
2024/04/03 03:59:24;;;;;;;;;;;;;;;13.57;47.32;99721.69;4942033;27;98530;-75
2024/04/03 04:01:51;;;;;;;;;;;;;;;13.55;47.79;99730.09;4922640;27;98281;-76
2024/04/03 04:04:18;;;;;;;;;;;;;;;13.53;47.72;99726.91;4940927;27;98292;-70
2024/04/03 04:06:44;;;;;;;;;;;;;;;13.53;47.91;99726.91;4939122;27;99037;-70
2024/04/03 04:09:12;;;;;;;;;;;;;;;13.52;47.73;99730.72;4919407;27;102369;-75
2024/04/03 04:11:40;;;;;;;;;;;;;;;13.50;47.67;99736.44;4954500;27;98224;-75
2024/04/03 04:14:07;;;;;;;;;;;;;;;13.50;47.58;99735.63;4957638;27;98028;-75
2024/04/03 04:16:33;;;;;;;;;;;;;;;13.49;47.75;99739.44;4924393;27;98031;-71
2024/04/03 04:19:00;;;;;;;;;;;;;;;13.49;47.44;99736.75;4924992;28;99130;-70
2024/04/03 04:21:27;;;;;;;;;;;;;;;13.47;47.85;99730.81;4936797;28;98169;-75
2024/04/03 04:23:56;;;;;;;;;;;;;;;13.46;47.54;99734.63;4925433;27;98052;-76
2024/04/03 04:26:22;;;;;;;;;;;;;;;13.45;47.92;99738.44;4938815;27;98632;-70
2024/04/03 04:28:48;;;;;;;;;;;;;;;13.43;47.88;99735.22;4915045;27;98637;-70
2024/04/03 04:31:14;;;;;;;;;;;;;;;13.43;47.56;99735.22;4933769;27;98428;-70
2024/04/03 04:33:40;;;;;;;;;;;;;;;13.42;47.92;99747.97;4940233;28;98503;-70
2024/04/03 04:36:07;;;;;;;;;;;;;;;13.41;47.65;99734.75;4923555;28;99298;-70
2024/04/03 04:38:33;;;;;;;;;;;;;;;13.40;47.47;99735.84;4924210;27;98060;-75
2024/04/03 04:41:02;;;;;;;;;;;;;;;13.39;47.82;99732.31;4956381;27;98432;-70
2024/04/03 04:43:29;;;;;;;;;;;;;;;13.39;47.88;99736.94;4938951;27;98235;-70
2024/04/03 04:45:57;;;;;;;;;;;;;;;13.39;47.84;99734.25;4926260;27;98440;-70
2024/04/03 04:48:26;;;;;;;;;;;;;;;13.39;47.81;99742.34;4938811;27;98095;-70
2024/04/03 04:50:54;;;;;;;;;;;;;;;13.38;47.86;99746.97;4924068;28;99328;-75
2024/04/03 04:53:21;;;;;;;;;;;;;;;13.39;47.76;99751.28;4940265;27;98450;-70
2024/04/03 04:55:53;;;;;;;;;;;;;;;13.38;47.56;99746.19;4920401;28;98106;-75
2024/04/03 04:58:19;;;;;;;;;;;;;;;13.37;47.68;99753.50;4953751;27;99795;-70
2024/04/03 05:00:48;;;;;;;;;;;;;;;13.38;47.53;99751.59;4938264;27;97928;-75
2024/04/03 05:03:18;;;;;;;;;;;;;;;13.38;47.55;99752.38;4923352;27;98466;-74
2024/04/03 05:05:46;;;;;;;;;;;;;;;13.38;47.52;99752.38;4935314;27;99334;-74
2024/04/03 05:08:13;;;;;;;;;;;;;;;13.39;47.61;99753.19;4952511;27;99786;-74
2024/04/03 05:10:40;;;;;;;;;;;;;;;13.41;47.67;99759.91;4933557;27;99176;-75
2024/04/03 05:13:07;;;;;;;;;;;;;;;13.44;47.43;99772.84;4951196;27;98239;-76
2024/04/03 05:15:34;;;;;;;;;;;;;;;13.47;47.61;99768.72;4947702;27;98342;-75
2024/04/03 05:18:02;;;;;;;;;;;;;;;13.50;47.66;99766.22;4935481;28;98100;-75
2024/04/03 05:20:29;;;;;;;;;;;;;;;13.55;47.38;99762.59;4931006;27;98220;-77
2024/04/03 05:22:57;;;;;;;;;;;;;;;13.59;47.54;99773.59;4937386;27;98246;-75
2024/04/03 05:25:25;;;;;;;;;;;;;;;13.62;47.68;99770.31;4935985;27;98510;-75
2024/04/03 05:27:53;;;;;;;;;;;;;;;13.64;47.29;99771.63;4953267;27;99492;-75
2024/04/03 05:30:20;;;;;;;;;;;;;;;13.69;47.55;99776.09;4934250;28;99369;-75
2024/04/03 05:32:46;;;;;;;;;;;;;;;13.73;47.62;99787.94;4940981;27;98260;-69
2024/04/03 05:35:15;;;;;;;;;;;;;;;13.77;47.28;99780.81;4923919;28;98988;-70
2024/04/03 05:37:43;;;;;;;;;;;;;;;13.82;47.42;99782.59;4951588;27;100822;-75
2024/04/03 05:40:10;;;;;;;;;;;;;;;13.86;47.20;99781.66;4918020;28;98454;-70
2024/04/03 05:42:36;;;;;;;;;;;;;;;13.90;47.48;99776.44;4920125;27;99362;-70
2024/04/03 05:45:03;;;;;;;;;;;;;;;13.93;47.49;99773.94;4937413;28;98670;-70
2024/04/03 05:47:30;;;;;;;;;;;;;;;13.96;47.49;99764.41;4952014;27;98411;-70
2024/04/03 05:49:58;;;;;;;;;;;;;;;14.00;47.23;99760.75;4972712;27;101494;-70
2024/04/03 05:52:25;;;;;;;;;;;;;;;14.03;47.11;99761.25;4935425;27;99182;-75
2024/04/03 05:54:51;;;;;;;;;;;;;;;14.07;47.48;99757.63;4938970;27;100614;-69
2024/04/03 05:57:18;;;;;;;;;;;;;;;14.13;47.50;99764.53;4928283;28;100024;-75
2024/04/03 05:59:46;;;;;;;;;;;;;;;14.18;47.04;99769.00;4940299;27;98463;-70
2024/04/03 06:02:18;;;;;;;;;;;;;;;14.22;47.02;99761.88;4918654;27;100186;-75
2024/04/03 06:04:44;;;;;;;;;;;;;;;14.32;47.22;99769.75;4924905;27;99137;-70
2024/04/03 06:07:11;;;;;;;;;;;;;;;14.40;47.02;99765.50;4941761;28;99956;-70
2024/04/03 06:09:37;;;;;;;;;;;;;;;14.49;46.93;99769.09;4921170;27;100730;-70
2024/04/03 06:12:06;;;;;;;;;;;;;;;14.61;46.98;99760.38;4923806;28;98216;-75
2024/04/03 06:14:34;;;;;;;;;;;;;;;14.77;46.74;99760.78;4941787;27;98273;-75
2024/04/03 06:17:03;;;;;;;;;;;;;;;14.83;47.00;99752.22;4954977;28;98719;-76
2024/04/03 06:19:30;;;;;;;;;;;;;;;14.93;47.00;99754.66;4935979;27;98100;-75
2024/04/03 06:21:57;;;;;;;;;;;;;;;14.93;46.97;99751.13;4948991;27;99907;-70
2024/04/03 06:24:27;;;;;;;;;;;;;;;15.05;46.95;99755.97;4939443;28;98797;-75
2024/04/03 06:26:54;;;;;;;;;;;;;;;15.16;46.73;99765.41;4938436;27;98520;-76
2024/04/03 06:29:20;;;;;;;;;;;;;;;15.25;46.68;99760.84;4934157;27;98937;-75
2024/04/03 06:31:52;;;;;;;;;;;;;;;15.34;46.72;99763.56;4956148;27;98330;-75
2024/04/03 06:34:22;;;;;;;;;;;;;;;15.46;46.60;99759.13;4939347;27;99173;-74
2024/04/03 06:36:49;;;;;;;;;;;;;;;15.55;46.70;99752.91;4935238;27;98934;-75
2024/04/03 06:39:16;;;;;;;;;;;;;;;15.68;46.64;99758.22;4937545;27;99539;-75
2024/04/03 06:41:44;;;;;;;;;;;;;;;15.87;46.61;99765.25;4940554;27;98342;-75
2024/04/03 06:44:10;;;;;;;;;;;;;;;16.08;46.29;99760.00;4937852;28;98150;-70
2024/04/03 06:46:37;;;;;;;;;;;;;;;16.13;46.47;99768.78;4923909;27;99527;-70
2024/04/03 06:49:03;;;;;;;;;;;;;;;16.26;46.30;99772.44;4918381;27;99850;-71
2024/04/03 06:51:31;;;;;;;;;;;;;;;16.42;46.41;99780.91;4934081;27;98253;-75
2024/04/03 06:53:59;;;;;;;;;;;;;;;16.49;46.29;99781.22;4937699;27;98604;-76
2024/04/03 06:56:26;;;;;;;;;;;;;;;16.60;46.18;99774.31;4936261;27;98136;-70
2024/04/03 06:58:52;;;;;;;;;;;;;;;16.73;46.13;99785.31;4949429;27;97969;-70
2024/04/03 07:01:18;;;;;;;;;;;;;;;16.89;46.18;99775.53;4933866;28;98612;-70
2024/04/03 07:03:45;;;;;;;;;;;;;;;17.18;45.91;99785.69;4919680;27;98726;-75
2024/04/03 07:06:15;;;;;;;;;;;;;;;17.39;45.74;99774.81;4934583;28;99322;-75
2024/04/03 07:08:41;;;;;;;;;;;;;;;17.62;45.83;99778.84;4921396;27;98903;-70
2024/04/03 07:11:07;;;;;;;;;;;;;;;17.90;45.49;99787.34;4939745;28;99002;-71
2024/04/03 07:13:36;;;;;;;;;;;;;;;17.96;45.63;99781.69;4922958;27;98464;-74
2024/04/03 07:16:04;;;;;;;;;;;;;;;18.34;45.46;99786.97;4916751;27;98271;-75
2024/04/03 07:18:30;;;;;;;;;;;;;;;18.42;45.38;99794.28;4927434;28;99381;-71
2024/04/03 07:21:05;;;;;;;;;;;;;;;18.44;45.57;99786.56;4915338;28;98115;-75
2024/04/03 07:23:32;;;;;;;;;;;;;;;18.49;45.72;99791.81;4942141;28;98609;-71
2024/04/03 07:25:58;;;;;;;;;;;;;;;18.60;45.52;99792.97;4917031;28;101729;-70
2024/04/03 07:28:27;;;;;;;;;;;;;;;18.71;45.31;99795.31;4929875;28;99802;-75
2024/04/03 07:30:57;;;;;;;;;;;;;;;18.75;45.45;99801.69;4934003;28;98261;-75
2024/04/03 07:33:24;;;;;;;;;;;;;;;18.78;45.76;99814.66;4917658;28;98458;-74
2024/04/03 07:35:50;;;;;;;;;;;;;;;18.80;45.57;99804.19;4914812;28;100258;-75
2024/04/03 07:38:20;;;;;;;;;;;;;;;18.84;45.93;99803.19;4927078;28;99466;-75
2024/04/03 07:40:54;;;;;;;;;;;;;;;19.02;45.56;99808.44;4917652;28;101341;-75
2024/04/03 07:43:20;;;;;;;;;;;;;;;19.42;45.18;99805.84;4899946;28;100582;-71
2024/04/03 07:45:46;;;;;;;;;;;;;;;19.68;45.13;99804.72;4910112;28;104898;-71
2024/04/03 07:48:16;;;;;;;;;;;;;;;19.72;45.19;99813.81;4915630;28;98172;-75
2024/04/03 07:50:43;;;;;;;;;;;;;;;19.82;45.20;99810.63;4917666;28;98322;-75
2024/04/03 07:53:09;;;;;;;;;;;;;;;20.07;45.04;99809.41;4918370;28;98491;-75
2024/04/03 07:55:37;;;;;;;;;;;;;;;20.46;44.70;99814.41;4914986;28;98147;-75
2024/04/03 07:58:04;;;;;;;;;;;;;;;20.69;44.71;99811.94;4904940;28;98281;-75
2024/04/03 08:00:30;;;;;;;;;;;;;;;21.01;44.55;99805.31;4912429;28;98085;-71
2024/04/03 08:02:58;;;;;;;;;;;;;;;21.84;43.89;99793.56;4918218;28;98902;-72
2024/04/03 08:05:25;;;;;;;;;;;;;;;22.29;43.52;99802.00;4914228;28;98028;-72
2024/04/03 08:07:53;;;;;;;;;;;;;;;22.67;43.55;99805.84;4916171;28;98437;-75
2024/04/03 08:10:20;;;;;;;;;;;;;;;22.54;43.92;99805.22;4917590;28;98422;-72
2024/04/03 08:12:53;;;;;;;;;;;;;;;22.30;44.72;99813.78;4916184;28;98956;-75
2024/04/03 08:15:21;;;;;;;;;;;;;;;22.12;44.81;99807.88;4917112;28;100478;-73
2024/04/03 08:17:49;;;;;;;;;;;;;;;22.01;45.19;99817.88;4931231;28;98183;-74
2024/04/03 08:20:20;;;;;;;;;;;;;;;21.90;45.21;99827.81;4916273;27;98284;-75
2024/04/03 08:22:50;;;;;;;;;;;;;;;21.79;45.12;99824.81;4934769;28;99573;-75
2024/04/03 08:25:20;;;;;;;;;;;;;;;21.75;45.43;99823.94;4933263;28;98763;-75
2024/04/03 08:27:47;;;;;;;;;;;;;;;21.68;45.48;99821.81;4917758;28;99699;-72
2024/04/03 08:30:15;;;;;;;;;;;;;;;21.52;45.56;99832.03;4928603;28;98193;-74
2024/04/03 08:32:43;;;;;;;;;;;;;;;21.39;45.69;99828.59;4931483;28;98115;-76
2024/04/03 08:35:11;;;;;;;;;;;;;;;21.33;45.76;99830.00;4917350;28;99284;-74
2024/04/03 08:37:38;;;;;;;;;;;;;;;21.40;45.69;99834.88;4918470;28;98232;-72
2024/04/03 08:40:05;;;;;;;;;;;;;;;21.43;45.69;99834.16;4932692;28;100899;-72
2024/04/03 08:42:31;;;;;;;;;;;;;;;21.35;45.83;99837.91;4912031;28;98169;-71
2024/04/03 08:45:00;;;;;;;;;;;;;;;21.34;45.83;99828.88;4938446;27;98366;-75
2024/04/03 08:47:29;;;;;;;;;;;;;;;21.21;46.02;99832.81;4944629;28;98282;-75
2024/04/03 08:49:56;;;;;;;;;;;;;;;21.00;46.33;99835.81;4932122;28;99321;-72
2024/04/03 08:52:22;;;;;;;;;;;;;;;20.91;46.37;99832.47;4934769;28;98551;-73
2024/04/03 08:54:51;;;;;;;;;;;;;;;20.87;46.30;99829.63;4916693;28;97956;-74
2024/04/03 08:57:17;;;;;;;;;;;;;;;20.92;46.10;99836.78;4914208;28;98527;-75
2024/04/03 08:59:43;;;;;;;;;;;;;;;20.86;46.31;99838.97;4930235;28;98213;-74
2024/04/03 09:02:10;;;;;;;;;;;;;;;20.71;46.40;99837.00;4932142;28;100299;-75
2024/04/03 09:04:42;;;;;;;;;;;;;;;20.59;46.38;99835.94;4934588;27;97894;-73
2024/04/03 09:07:18;;;;;;;;;;;;;;;20.50;46.50;99832.53;4929684;28;98529;-72
2024/04/03 09:09:45;;;;;;;;;;;;;;;20.42;46.56;99836.19;4950230;27;99816;-74
2024/04/03 09:12:13;;;;;;;;;;;;;;;20.33;46.84;99844.56;4936297;28;98220;-74
2024/04/03 09:14:41;;;;;;;;;;;;;;;20.24;46.75;99832.16;4915531;28;98171;-75
2024/04/03 09:17:12;;;;;;;;;;;;;;;20.17;46.77;99838.22;4951911;28;98338;-74
2024/04/03 09:19:50;;;;;;;;;;;;;;;20.14;46.76;99840.84;4933644;27;98314;-74
2024/04/03 09:22:16;;;;;;;;;;;;;;;20.10;46.69;99836.06;4927467;28;98475;-72
2024/04/03 09:24:48;;;;;;;;;;;;;;;20.07;46.76;99835.97;4914478;28;98379;-75
2024/04/03 09:27:15;;;;;;;;;;;;;;;20.00;46.68;99833.84;4951353;28;100951;-72
2024/04/03 09:29:53;;;;;;;;;;;;;;;19.96;46.79;99834.84;4913388;28;98633;-74
2024/04/03 09:32:19;;;;;;;;;;;;;;;19.92;46.70;99837.47;4933064;28;101057;-72
2024/04/03 09:34:46;;;;;;;;;;;;;;;19.89;46.86;99835.44;4950382;27;98493;-72
2024/04/03 09:37:15;;;;;;;;;;;;;;;19.83;46.94;99837.59;4944415;28;98461;-74
2024/04/03 09:39:41;;;;;;;;;;;;;;;19.76;46.93;99828.38;4911842;28;100181;-73
2024/04/03 09:42:11;;;;;;;;;;;;;;;19.61;47.08;99827.97;4950651;28;98721;-74
2024/04/03 09:44:38;;;;;;;;;;;;;;;19.44;47.16;99833.63;4917970;28;98192;-74
2024/04/03 09:47:11;;;;;;;;;;;;;;;19.28;47.38;99838.16;4935109;27;99411;-74
2024/04/03 09:49:57;;;;;;;;;;;;;;;19.11;47.43;99839.97;4931905;28;98216;-74
2024/04/03 09:52:26;;;;;;;;;;;;;;;18.93;47.71;99845.97;4941248;28;98187;-75
2024/04/03 09:54:53;;;;;;;;;;;;;;;18.78;47.66;99850.13;4934661;27;100009;-71
2024/04/03 09:57:19;;;;;;;;;;;;;;;18.66;47.34;99848.13;4939016;28;98464;-71
2024/04/03 09:59:51;;;;;;;;;;;;;;;18.56;47.53;99848.56;4919206;27;99807;-70
2024/04/03 10:02:19;;;;;;;;;;;;;;;18.42;47.76;99853.50;4933028;27;98514;-75
2024/04/03 10:04:47;;;;;;;;;;;;;;;18.30;47.68;99862.41;4917802;27;98509;-71
2024/04/03 10:07:26;;;;;;;;;;;;;;;18.20;47.53;99862.84;4935575;28;98368;-74
2024/04/03 10:09:55;;;;;;;;;;;;;;;18.12;47.76;99861.78;4936711;27;98108;-75
2024/04/03 10:12:28;;;;;;;;;;;;;;;18.04;47.45;99860.72;4938024;28;99473;-74
2024/04/03 10:14:58;;;;;;;;;;;;;;;17.98;47.56;99866.69;4938841;27;98105;-74
2024/04/03 10:17:25;;;;;;;;;;;;;;;17.91;47.46;99867.97;4936462;28;98312;-71
2024/04/03 10:19:59;;;;;;;;;;;;;;;17.84;47.54;99872.34;4930867;28;99836;-75
2024/04/03 10:22:31;;;;;;;;;;;;;;;17.85;47.62;99869.31;4938172;27;100175;-75
2024/04/03 10:24:57;;;;;;;;;;;;;;;18.03;47.33;99866.47;4951646;27;97993;-71
2024/04/03 10:27:26;;;;;;;;;;;;;;;18.11;47.17;99863.69;4934742;27;99815;-74
2024/04/03 10:30:06;;;;;;;;;;;;;;;18.18;47.18;99868.59;4939992;28;98916;-71
2024/04/03 10:32:33;;;;;;;;;;;;;;;18.28;47.06;99860.03;4955655;27;98420;-74
2024/04/03 10:34:59;;;;;;;;;;;;;;;18.50;46.60;99866.28;4950511;28;98415;-70
2024/04/03 10:37:25;;;;;;;;;;;;;;;18.67;46.55;99868.03;4937698;27;99048;-71
2024/04/03 10:39:52;;;;;;;;;;;;;;;18.97;46.29;99864.06;4923402;28;98851;-70
2024/04/03 10:42:20;;;;;;;;;;;;;;;19.11;46.25;99864.56;4932109;27;99945;-74
2024/04/03 10:44:48;;;;;;;;;;;;;;;19.16;46.50;99865.47;4917301;27;100379;-74
2024/04/03 10:47:17;;;;;;;;;;;;;;;19.17;46.56;99870.59;4968638;27;99606;-74
2024/04/03 10:49:44;;;;;;;;;;;;;;;19.12;46.70;99870.81;4941523;27;98439;-71
2024/04/03 10:52:12;;;;;;;;;;;;;;;18.99;46.88;99871.94;4918710;28;98240;-74
2024/04/03 10:54:39;;;;;;;;;;;;;;;18.92;46.93;99872.47;4932210;27;98473;-75
2024/04/03 10:57:06;;;;;;;;;;;;;;;18.92;46.93;99874.41;4935842;28;99245;-75
2024/04/03 10:59:33;;;;;;;;;;;;;;;18.99;46.92;99871.94;4939683;27;98201;-71
2024/04/03 11:02:00;;;;;;;;;;;;;;;19.04;46.74;99869.78;4937636;28;99153;-70
2024/04/03 11:04:28;;;;;;;;;;;;;;;19.10;46.98;99868.44;4936237;27;98908;-74
2024/04/03 11:06:58;;;;;;;;;;;;;;;19.17;46.92;99861.59;4933873;28;98233;-75
2024/04/03 11:09:26;;;;;;;;;;;;;;;19.23;46.75;99863.00;4947583;27;98161;-71
2024/04/03 11:11:53;;;;;;;;;;;;;;;19.22;46.74;99862.19;4938256;28;100159;-71
2024/04/03 11:14:24;;;;;;;;;;;;;;;19.23;46.96;99863.78;4924094;27;98790;-71
2024/04/03 11:16:56;;;;;;;;;;;;;;;19.19;47.11;99853.88;4921281;27;99254;-75
2024/04/03 11:19:23;;;;;;;;;;;;;;;19.09;47.27;99860.56;4924271;28;98324;-71
2024/04/03 11:21:50;;;;;;;;;;;;;;;18.97;47.38;99864.06;4923416;28;98349;-71
2024/04/03 11:24:22;;;;;;;;;;;;;;;18.93;47.21;99863.16;4917875;28;98153;-74
2024/04/03 11:26:49;;;;;;;;;;;;;;;18.91;47.41;99862.69;4928445;28;98178;-71
2024/04/03 11:29:30;;;;;;;;;;;;;;;18.87;47.25;99857.13;4931549;28;99309;-75
2024/04/03 11:31:58;;;;;;;;;;;;;;;18.81;47.21;99853.00;4929881;28;99142;-75
2024/04/03 11:34:27;;;;;;;;;;;;;;;18.84;47.32;99854.25;4914056;28;99240;-71
2024/04/03 11:36:55;;;;;;;;;;;;;;;18.86;47.04;99855.53;4936403;28;98073;-76
2024/04/03 11:39:22;;;;;;;;;;;;;;;18.75;47.27;99861.75;4917987;28;98466;-75
2024/04/03 11:41:49;;;;;;;;;;;;;;;18.65;47.37;99854.72;4903793;28;98497;-71
2024/04/03 11:44:15;;;;;;;;;;;;;;;18.59;47.35;99861.56;4930026;28;98323;-75
2024/04/03 11:46:42;;;;;;;;;;;;;;;18.54;47.51;99859.00;4919228;28;98249;-71
2024/04/03 11:49:09;;;;;;;;;;;;;;;18.47;47.39;99867.75;4926700;28;98299;-75
2024/04/03 11:51:36;;;;;;;;;;;;;;;18.38;47.61;99867.81;4926388;28;99219;-75
2024/04/03 11:54:03;;;;;;;;;;;;;;;18.38;47.48;99864.28;4931407;28;97953;-75
2024/04/03 11:56:30;;;;;;;;;;;;;;;18.34;47.63;99868.81;4935266;28;98414;-74
2024/04/03 11:58:56;;;;;;;;;;;;;;;18.22;47.74;99877.72;4913778;28;98150;-72
2024/04/03 12:01:23;;;;;;;;;;;;;;;18.25;47.61;99877.06;4910189;28;100062;-74
2024/04/03 12:03:50;;;;;;;;;;;;;;;19.26;46.28;99867.78;4935569;28;98259;-74
2024/04/03 12:06:17;;;;;;;;;;;;;;;20.02;45.42;99861.63;4917569;28;98502;-72
2024/04/03 12:08:50;;;;;;;;;;;;;;;20.42;45.40;99870.97;4931344;28;98383;-72
2024/04/03 12:11:18;;;;;;;;;;;;;;;20.60;45.44;99875.06;4916204;28;98093;-73
2024/04/03 12:13:44;;;;;;;;;;;;;;;20.49;45.91;99873.97;4919095;28;98406;-75
2024/04/03 12:16:11;;;;;;;;;;;;;;;20.30;46.23;99880.81;4916981;28;99126;-75
2024/04/03 12:18:48;;;;;;;;;;;;;;;20.29;46.41;99875.69;4950491;27;99422;-75
2024/04/03 12:21:15;;;;;;;;;;;;;;;20.46;46.24;99880.09;4935637;27;98691;-74
2024/04/03 12:23:42;;;;;;;;;;;;;;;20.64;46.04;99877.91;4931662;27;98429;-72
2024/04/03 12:26:09;;;;;;;;;;;;;;;20.76;46.03;99867.69;4931746;27;98836;-72
2024/04/03 12:28:37;;;;;;;;;;;;;;;20.85;46.01;99875.72;4918907;27;98332;-72
2024/04/03 12:31:04;;;;;;;;;;;;;;;20.95;45.90;99869.75;4933056;28;98717;-73
2024/04/03 12:33:31;;;;;;;;;;;;;;;21.05;45.96;99868.44;4965092;27;98698;-75
2024/04/03 12:35:57;;;;;;;;;;;;;;;21.14;45.94;99862.78;4938343;27;98850;-72
2024/04/03 12:38:23;;;;;;;;;;;;;;;21.21;45.86;99865.69;4940088;27;98423;-73
2024/04/03 12:40:50;;;;;;;;;;;;;;;21.26;45.89;99863.50;4919162;27;98094;-71
2024/04/03 12:43:19;;;;;;;;;;;;;;;21.35;45.92;99857.09;4938557;27;98610;-74
2024/04/03 12:45:50;;;;;;;;;;;;;;;21.44;45.72;99874.94;4934604;27;103514;-72
2024/04/03 12:48:16;;;;;;;;;;;;;;;21.54;46.01;99881.84;4933170;27;98175;-73
2024/04/03 12:50:44;;;;;;;;;;;;;;;21.60;45.97;99866.69;4938590;27;99080;-74
2024/04/03 12:53:10;;;;;;;;;;;;;;;21.66;45.80;99868.03;4931393;27;99037;-75
2024/04/03 12:55:37;;;;;;;;;;;;;;;21.69;46.00;99869.22;4938530;27;99493;-72